sensor_id;sensor_type;location;lat;lon;timestamp;temperature;humidity
36186;DHT22;22228;53.222;7.446;2023-01-10T00:01:58;5.20;99.90
36186;DHT22;22228;53.222;7.446;2023-01-10T00:04:19;5.10;99.90
36186;DHT22;22228;53.222;7.446;2023-01-10T00:06:39;5.00;99.90
36186;DHT22;22228;53.222;7.446;2023-01-10T00:08:59;5.00;99.90
36186;DHT22;22228;53.222;7.446;2023-01-10T00:11:20;4.90;99.90
36186;DHT22;22228;53.222;7.446;2023-01-10T00:13:58;4.90;99.90
36186;DHT22;22228;53.222;7.446;2023-01-10T00:16:20;4.90;99.90
36186;DHT22;22228;53.222;7.446;2023-01-10T00:18:41;4.90;99.90
36186;DHT22;22228;53.222;7.446;2023-01-10T00:21:02;4.80;99.90
36186;DHT22;22228;53.222;7.446;2023-01-10T00:23:25;4.90;99.90
36186;DHT22;22228;53.222;7.446;2023-01-10T00:25:46;4.90;99.90
36186;DHT22;22228;53.222;7.446;2023-01-10T00:28:07;5.00;99.90
36186;DHT22;22228;53.222;7.446;2023-01-10T00:30:37;5.00;99.90
36186;DHT22;22228;53.222;7.446;2023-01-10T00:33:00;5.00;99.90
36186;DHT22;22228;53.222;7.446;2023-01-10T00:35:23;5.10;99.90
36186;DHT22;22228;53.222;7.446;2023-01-10T00:37:44;5.10;99.90
36186;DHT22;22228;53.222;7.446;2023-01-10T00:40:06;5.20;99.90
36186;DHT22;22228;53.222;7.446;2023-01-10T00:42:28;5.20;99.90
36186;DHT22;22228;53.222;7.446;2023-01-10T00:45:07;5.20;99.90
36186;DHT22;22228;53.222;7.446;2023-01-10T00:47:27;5.20;99.90
36186;DHT22;22228;53.222;7.446;2023-01-10T00:49:49;5.20;99.90
36186;DHT22;22228;53.222;7.446;2023-01-10T00:52:09;5.20;99.90
36186;DHT22;22228;53.222;7.446;2023-01-10T00:54:30;5.10;99.90
36186;DHT22;22228;53.222;7.446;2023-01-10T00:56:50;5.10;99.90
36186;DHT22;22228;53.222;7.446;2023-01-10T00:59:11;5.10;99.90
36186;DHT22;22228;53.222;7.446;2023-01-10T01:01:31;5.10;99.90
36186;DHT22;22228;53.222;7.446;2023-01-10T01:03:52;5.10;99.90
36186;DHT22;22228;53.222;7.446;2023-01-10T01:06:13;5.00;99.90
36186;DHT22;22228;53.222;7.446;2023-01-10T01:08:34;4.90;99.90
36186;DHT22;22228;53.222;7.446;2023-01-10T01:10:55;4.90;99.90
36186;DHT22;22228;53.222;7.446;2023-01-10T01:13:18;4.90;99.90
36186;DHT22;22228;53.222;7.446;2023-01-10T04:00:56;4.10;99.90
36186;DHT22;22228;53.222;7.446;2023-01-10T04:03:17;4.30;99.90
36186;DHT22;22228;53.222;7.446;2023-01-10T04:05:38;4.30;99.90
36186;DHT22;22228;53.222;7.446;2023-01-10T04:07:58;4.40;99.90
36186;DHT22;22228;53.222;7.446;2023-01-10T04:10:19;4.30;99.90
36186;DHT22;22228;53.222;7.446;2023-01-10T04:12:40;4.40;99.90
36186;DHT22;22228;53.222;7.446;2023-01-10T04:15:00;4.50;99.90
36186;DHT22;22228;53.222;7.446;2023-01-10T04:17:22;4.50;99.90
36186;DHT22;22228;53.222;7.446;2023-01-10T04:19:43;4.50;99.90
36186;DHT22;22228;53.222;7.446;2023-01-10T04:22:03;4.60;99.90
36186;DHT22;22228;53.222;7.446;2023-01-10T04:24:25;4.60;99.90
36186;DHT22;22228;53.222;7.446;2023-01-10T04:26:45;4.60;99.90
36186;DHT22;22228;53.222;7.446;2023-01-10T04:29:05;4.70;99.90
36186;DHT22;22228;53.222;7.446;2023-01-10T04:31:26;4.80;99.90
36186;DHT22;22228;53.222;7.446;2023-01-10T04:33:48;4.90;99.90
36186;DHT22;22228;53.222;7.446;2023-01-10T04:36:09;4.90;99.90
36186;DHT22;22228;53.222;7.446;2023-01-10T04:38:29;5.00;99.90
36186;DHT22;22228;53.222;7.446;2023-01-10T04:40:54;5.00;99.90
36186;DHT22;22228;53.222;7.446;2023-01-10T04:43:14;5.00;99.90
36186;DHT22;22228;53.222;7.446;2023-01-10T04:45:35;5.10;99.90
36186;DHT22;22228;53.222;7.446;2023-01-10T04:47:55;5.10;99.90
36186;DHT22;22228;53.222;7.446;2023-01-10T04:50:19;5.10;99.90
36186;DHT22;22228;53.222;7.446;2023-01-10T04:52:39;5.20;99.90
36186;DHT22;22228;53.222;7.446;2023-01-10T04:55:01;5.20;99.90
36186;DHT22;22228;53.222;7.446;2023-01-10T04:57:21;5.20;99.90
36186;DHT22;22228;53.222;7.446;2023-01-10T04:59:42;5.30;99.90
36186;DHT22;22228;53.222;7.446;2023-01-10T05:02:03;5.30;99.90
36186;DHT22;22228;53.222;7.446;2023-01-10T05:04:24;5.30;99.90
36186;DHT22;22228;53.222;7.446;2023-01-10T05:06:46;5.20;99.90
36186;DHT22;22228;53.222;7.446;2023-01-10T05:09:07;5.10;99.90
36186;DHT22;22228;53.222;7.446;2023-01-10T05:11:27;5.10;99.90
36186;DHT22;22228;53.222;7.446;2023-01-10T05:13:48;5.00;99.90
36186;DHT22;22228;53.222;7.446;2023-01-10T05:16:09;5.00;99.90
36186;DHT22;22228;53.222;7.446;2023-01-10T05:18:30;4.90;99.90
36186;DHT22;22228;53.222;7.446;2023-01-10T05:20:50;4.90;99.90
36186;DHT22;22228;53.222;7.446;2023-01-10T05:23:12;4.90;99.90
36186;DHT22;22228;53.222;7.446;2023-01-10T05:25:32;4.80;99.90
36186;DHT22;22228;53.222;7.446;2023-01-10T05:27:53;4.90;99.90
36186;DHT22;22228;53.222;7.446;2023-01-10T05:30:14;4.90;99.90
36186;DHT22;22228;53.222;7.446;2023-01-10T05:32:34;4.90;99.90
36186;DHT22;22228;53.222;7.446;2023-01-10T05:34:55;4.90;99.90
36186;DHT22;22228;53.222;7.446;2023-01-10T05:37:15;4.90;99.90
36186;DHT22;22228;53.222;7.446;2023-01-10T05:39:37;5.00;99.90
36186;DHT22;22228;53.222;7.446;2023-01-10T05:41:59;5.00;99.90
36186;DHT22;22228;53.222;7.446;2023-01-10T05:44:20;4.90;99.90
36186;DHT22;22228;53.222;7.446;2023-01-10T05:46:40;4.90;99.90
36186;DHT22;22228;53.222;7.446;2023-01-10T05:49:01;5.00;99.90
36186;DHT22;22228;53.222;7.446;2023-01-10T05:51:21;5.00;99.90
36186;DHT22;22228;53.222;7.446;2023-01-10T05:53:42;5.00;99.90
36186;DHT22;22228;53.222;7.446;2023-01-10T05:56:04;5.10;99.90
36186;DHT22;22228;53.222;7.446;2023-01-10T05:58:26;5.00;99.90
36186;DHT22;22228;53.222;7.446;2023-01-10T06:00:47;5.00;99.90
36186;DHT22;22228;53.222;7.446;2023-01-10T06:03:07;4.90;99.90
36186;DHT22;22228;53.222;7.446;2023-01-10T06:05:28;4.80;99.90
36186;DHT22;22228;53.222;7.446;2023-01-10T06:07:48;4.80;99.90
36186;DHT22;22228;53.222;7.446;2023-01-10T06:10:09;4.80;99.90
36186;DHT22;22228;53.222;7.446;2023-01-10T06:12:31;4.70;99.90
36186;DHT22;22228;53.222;7.446;2023-01-10T06:14:51;4.70;99.90
36186;DHT22;22228;53.222;7.446;2023-01-10T06:17:12;4.60;99.90
36186;DHT22;22228;53.222;7.446;2023-01-10T06:19:32;4.60;99.90
36186;DHT22;22228;53.222;7.446;2023-01-10T06:21:53;4.60;99.90
36186;DHT22;22228;53.222;7.446;2023-01-10T06:24:13;4.50;99.90
36186;DHT22;22228;53.222;7.446;2023-01-10T06:26:34;4.50;99.90
36186;DHT22;22228;53.222;7.446;2023-01-10T06:28:55;4.50;99.90
36186;DHT22;22228;53.222;7.446;2023-01-10T06:31:17;4.60;99.90
36186;DHT22;22228;53.222;7.446;2023-01-10T06:33:37;4.60;99.90
36186;DHT22;22228;53.222;7.446;2023-01-10T06:35:59;4.60;99.90
36186;DHT22;22228;53.222;7.446;2023-01-10T06:38:20;4.70;99.90
36186;DHT22;22228;53.222;7.446;2023-01-10T06:40:40;4.80;99.90
36186;DHT22;22228;53.222;7.446;2023-01-10T06:43:01;4.80;99.90
36186;DHT22;22228;53.222;7.446;2023-01-10T06:45:23;4.90;99.90
36186;DHT22;22228;53.222;7.446;2023-01-10T06:47:43;4.90;99.90
36186;DHT22;22228;53.222;7.446;2023-01-10T06:50:05;4.90;99.90
36186;DHT22;22228;53.222;7.446;2023-01-10T06:52:26;4.90;99.90
36186;DHT22;22228;53.222;7.446;2023-01-10T06:54:46;4.90;99.90
36186;DHT22;22228;53.222;7.446;2023-01-10T06:57:07;5.00;99.90
36186;DHT22;22228;53.222;7.446;2023-01-10T06:59:28;5.00;99.90
36186;DHT22;22228;53.222;7.446;2023-01-10T07:01:50;5.00;99.90
36186;DHT22;22228;53.222;7.446;2023-01-10T07:04:10;5.00;99.90
36186;DHT22;22228;53.222;7.446;2023-01-10T07:06:33;5.00;99.90
36186;DHT22;22228;53.222;7.446;2023-01-10T07:08:55;5.00;99.90
36186;DHT22;22228;53.222;7.446;2023-01-10T07:11:16;5.10;99.90
36186;DHT22;22228;53.222;7.446;2023-01-10T07:13:36;5.10;99.90
36186;DHT22;22228;53.222;7.446;2023-01-10T07:16:01;5.10;99.90
36186;DHT22;22228;53.222;7.446;2023-01-10T07:18:23;5.10;99.90
36186;DHT22;22228;53.222;7.446;2023-01-10T07:20:43;5.20;99.90
36186;DHT22;22228;53.222;7.446;2023-01-10T07:23:04;5.10;99.90
36186;DHT22;22228;53.222;7.446;2023-01-10T07:25:26;5.10;99.90
36186;DHT22;22228;53.222;7.446;2023-01-10T07:27:47;5.00;99.90
36186;DHT22;22228;53.222;7.446;2023-01-10T07:30:09;5.00;99.90
36186;DHT22;22228;53.222;7.446;2023-01-10T07:32:29;4.90;99.90
36186;DHT22;22228;53.222;7.446;2023-01-10T07:34:51;4.80;99.90
36186;DHT22;22228;53.222;7.446;2023-01-10T07:37:11;4.80;99.90
36186;DHT22;22228;53.222;7.446;2023-01-10T07:39:32;4.70;99.90
36186;DHT22;22228;53.222;7.446;2023-01-10T07:41:53;4.70;99.90
36186;DHT22;22228;53.222;7.446;2023-01-10T07:44:14;4.60;99.90
36186;DHT22;22228;53.222;7.446;2023-01-10T07:46:34;4.60;99.90
36186;DHT22;22228;53.222;7.446;2023-01-10T07:48:55;4.60;99.90
36186;DHT22;22228;53.222;7.446;2023-01-10T07:51:17;4.60;99.90
36186;DHT22;22228;53.222;7.446;2023-01-10T07:53:38;4.60;99.90
36186;DHT22;22228;53.222;7.446;2023-01-10T07:55:59;4.70;99.90
36186;DHT22;22228;53.222;7.446;2023-01-10T07:58:20;4.80;99.90
36186;DHT22;22228;53.222;7.446;2023-01-10T08:00:40;4.90;99.90
36186;DHT22;22228;53.222;7.446;2023-01-10T08:03:01;5.00;99.90
36186;DHT22;22228;53.222;7.446;2023-01-10T08:05:22;5.10;99.90
36186;DHT22;22228;53.222;7.446;2023-01-10T08:07:43;5.20;99.90
36186;DHT22;22228;53.222;7.446;2023-01-10T08:10:06;5.20;99.90
36186;DHT22;22228;53.222;7.446;2023-01-10T08:12:27;5.30;99.90
36186;DHT22;22228;53.222;7.446;2023-01-10T08:14:47;5.30;99.90
36186;DHT22;22228;53.222;7.446;2023-01-10T08:17:07;5.40;99.90
36186;DHT22;22228;53.222;7.446;2023-01-10T08:19:28;5.40;99.90
36186;DHT22;22228;53.222;7.446;2023-01-10T08:21:48;5.50;99.90
36186;DHT22;22228;53.222;7.446;2023-01-10T08:24:10;5.50;99.90
36186;DHT22;22228;53.222;7.446;2023-01-10T08:26:31;5.50;99.90
36186;DHT22;22228;53.222;7.446;2023-01-10T08:28:51;5.50;99.90
36186;DHT22;22228;53.222;7.446;2023-01-10T08:31:12;5.50;99.90
36186;DHT22;22228;53.222;7.446;2023-01-10T08:33:32;5.60;99.90
36186;DHT22;22228;53.222;7.446;2023-01-10T08:35:53;5.60;99.90
36186;DHT22;22228;53.222;7.446;2023-01-10T08:38:13;5.70;99.90
36186;DHT22;22228;53.222;7.446;2023-01-10T08:40:35;5.70;99.90
36186;DHT22;22228;53.222;7.446;2023-01-10T08:42:57;5.80;99.90
36186;DHT22;22228;53.222;7.446;2023-01-10T08:45:18;5.80;99.90
36186;DHT22;22228;53.222;7.446;2023-01-10T08:47:38;5.80;99.90
36186;DHT22;22228;53.222;7.446;2023-01-10T08:49:59;5.80;99.90
36186;DHT22;22228;53.222;7.446;2023-01-10T08:52:19;5.80;99.90
36186;DHT22;22228;53.222;7.446;2023-01-10T08:54:40;5.70;99.90
36186;DHT22;22228;53.222;7.446;2023-01-10T08:57:02;5.70;99.90
36186;DHT22;22228;53.222;7.446;2023-01-10T08:59:22;5.80;99.90
36186;DHT22;22228;53.222;7.446;2023-01-10T09:01:43;5.80;99.90
36186;DHT22;22228;53.222;7.446;2023-01-10T09:04:04;5.90;99.90
36186;DHT22;22228;53.222;7.446;2023-01-10T09:06:24;5.90;99.90
36186;DHT22;22228;53.222;7.446;2023-01-10T09:08:44;6.00;99.90
36186;DHT22;22228;53.222;7.446;2023-01-10T09:11:05;6.10;99.90
36186;DHT22;22228;53.222;7.446;2023-01-10T09:13:27;6.10;99.90
36186;DHT22;22228;53.222;7.446;2023-01-10T09:15:50;6.10;99.90
36186;DHT22;22228;53.222;7.446;2023-01-10T09:18:12;6.10;99.90
36186;DHT22;22228;53.222;7.446;2023-01-10T09:20:35;6.20;99.90
36186;DHT22;22228;53.222;7.446;2023-01-10T09:22:56;6.20;99.90
36186;DHT22;22228;53.222;7.446;2023-01-10T09:25:16;6.20;99.90
36186;DHT22;22228;53.222;7.446;2023-01-10T09:27:36;6.20;99.90
36186;DHT22;22228;53.222;7.446;2023-01-10T09:29:58;6.30;99.90
36186;DHT22;22228;53.222;7.446;2023-01-10T09:32:19;6.30;99.90
36186;DHT22;22228;53.222;7.446;2023-01-10T09:34:39;6.30;99.90
36186;DHT22;22228;53.222;7.446;2023-01-10T09:37:00;6.40;99.90
36186;DHT22;22228;53.222;7.446;2023-01-10T09:39:21;6.40;99.90
36186;DHT22;22228;53.222;7.446;2023-01-10T09:42:02;6.40;99.90
36186;DHT22;22228;53.222;7.446;2023-01-10T09:44:35;6.40;99.90
36186;DHT22;22228;53.222;7.446;2023-01-10T09:47:04;6.40;99.90
36186;DHT22;22228;53.222;7.446;2023-01-10T09:49:41;6.50;99.90
36186;DHT22;22228;53.222;7.446;2023-01-10T09:52:19;6.50;99.90
36186;DHT22;22228;53.222;7.446;2023-01-10T09:54:42;6.60;99.90
36186;DHT22;22228;53.222;7.446;2023-01-10T09:57:03;6.70;99.90
36186;DHT22;22228;53.222;7.446;2023-01-10T09:59:29;6.80;99.90
36186;DHT22;22228;53.222;7.446;2023-01-10T10:01:54;6.80;99.90
36186;DHT22;22228;53.222;7.446;2023-01-10T10:04:24;6.90;99.90
36186;DHT22;22228;53.222;7.446;2023-01-10T10:06:47;7.00;99.90
36186;DHT22;22228;53.222;7.446;2023-01-10T10:09:09;7.00;99.90
36186;DHT22;22228;53.222;7.446;2023-01-10T10:11:45;7.10;99.90
36186;DHT22;22228;53.222;7.446;2023-01-10T10:14:20;7.10;99.90
36186;DHT22;22228;53.222;7.446;2023-01-10T10:16:55;7.10;99.90
36186;DHT22;22228;53.222;7.446;2023-01-10T10:19:25;7.10;99.90
36186;DHT22;22228;53.222;7.446;2023-01-10T10:21:57;7.10;99.90
36186;DHT22;22228;53.222;7.446;2023-01-10T10:24:38;7.00;99.90
36186;DHT22;22228;53.222;7.446;2023-01-10T10:27:08;7.00;99.90
36186;DHT22;22228;53.222;7.446;2023-01-10T10:32:39;7.10;99.90
36186;DHT22;22228;53.222;7.446;2023-01-10T10:35:11;7.00;99.90
36186;DHT22;22228;53.222;7.446;2023-01-10T10:37:35;7.00;99.90
36186;DHT22;22228;53.222;7.446;2023-01-10T10:40:00;7.00;99.90
36186;DHT22;22228;53.222;7.446;2023-01-10T10:42:21;7.00;99.90
36186;DHT22;22228;53.222;7.446;2023-01-10T10:44:51;7.00;99.90
36186;DHT22;22228;53.222;7.446;2023-01-10T10:47:15;7.00;99.90
36186;DHT22;22228;53.222;7.446;2023-01-10T10:49:38;7.00;99.90
36186;DHT22;22228;53.222;7.446;2023-01-10T10:52:07;7.00;99.90
36186;DHT22;22228;53.222;7.446;2023-01-10T10:54:30;7.00;99.90
36186;DHT22;22228;53.222;7.446;2023-01-10T10:56:51;7.10;99.90
36186;DHT22;22228;53.222;7.446;2023-01-10T10:59:16;7.10;99.90
36186;DHT22;22228;53.222;7.446;2023-01-10T11:01:37;7.10;99.90
36186;DHT22;22228;53.222;7.446;2023-01-10T11:04:05;7.10;99.90
36186;DHT22;22228;53.222;7.446;2023-01-10T11:06:29;7.10;99.90
36186;DHT22;22228;53.222;7.446;2023-01-10T11:08:54;7.10;99.90
36186;DHT22;22228;53.222;7.446;2023-01-10T11:11:19;7.10;99.90
36186;DHT22;22228;53.222;7.446;2023-01-10T11:13:45;7.10;99.90
36186;DHT22;22228;53.222;7.446;2023-01-10T11:16:07;7.10;99.90
36186;DHT22;22228;53.222;7.446;2023-01-10T11:18:29;7.10;99.90
36186;DHT22;22228;53.222;7.446;2023-01-10T11:20:51;7.10;99.90
36186;DHT22;22228;53.222;7.446;2023-01-10T11:23:40;7.10;99.90
36186;DHT22;22228;53.222;7.446;2023-01-10T11:26:03;7.20;99.90
36186;DHT22;22228;53.222;7.446;2023-01-10T11:28:27;7.20;99.90
36186;DHT22;22228;53.222;7.446;2023-01-10T11:30:49;7.20;99.90
36186;DHT22;22228;53.222;7.446;2023-01-10T11:33:17;7.30;99.90
36186;DHT22;22228;53.222;7.446;2023-01-10T11:35:39;7.30;99.90
36186;DHT22;22228;53.222;7.446;2023-01-10T11:38:02;7.30;99.90
36186;DHT22;22228;53.222;7.446;2023-01-10T11:40:25;7.30;99.90
36186;DHT22;22228;53.222;7.446;2023-01-10T11:42:48;7.30;99.90
36186;DHT22;22228;53.222;7.446;2023-01-10T11:45:27;7.30;99.90
36186;DHT22;22228;53.222;7.446;2023-01-10T11:47:52;7.30;99.90
36186;DHT22;22228;53.222;7.446;2023-01-10T11:50:17;7.30;99.90
36186;DHT22;22228;53.222;7.446;2023-01-10T11:52:43;7.30;99.90
36186;DHT22;22228;53.222;7.446;2023-01-10T11:55:06;7.30;99.90
36186;DHT22;22228;53.222;7.446;2023-01-10T11:57:29;7.40;99.90
36186;DHT22;22228;53.222;7.446;2023-01-10T11:59:54;7.40;99.90
36186;DHT22;22228;53.222;7.446;2023-01-10T12:02:21;7.40;99.90
36186;DHT22;22228;53.222;7.446;2023-01-10T12:04:45;7.40;99.90
36186;DHT22;22228;53.222;7.446;2023-01-10T12:07:08;7.40;99.90
36186;DHT22;22228;53.222;7.446;2023-01-10T12:09:36;7.40;99.90
36186;DHT22;22228;53.222;7.446;2023-01-10T12:12:00;7.50;99.90
36186;DHT22;22228;53.222;7.446;2023-01-10T12:14:21;7.50;99.90
36186;DHT22;22228;53.222;7.446;2023-01-10T12:16:44;7.50;99.90
36186;DHT22;22228;53.222;7.446;2023-01-10T12:19:10;7.50;99.90
36186;DHT22;22228;53.222;7.446;2023-01-10T12:21:38;7.50;99.90
36186;DHT22;22228;53.222;7.446;2023-01-10T12:24:02;7.50;99.90
36186;DHT22;22228;53.222;7.446;2023-01-10T12:26:24;7.50;99.90
36186;DHT22;22228;53.222;7.446;2023-01-10T12:28:49;7.50;99.90
36186;DHT22;22228;53.222;7.446;2023-01-10T12:31:12;7.50;99.90
36186;DHT22;22228;53.222;7.446;2023-01-10T12:33:37;7.40;99.90
36186;DHT22;22228;53.222;7.446;2023-01-10T12:36:15;7.40;99.90
36186;DHT22;22228;53.222;7.446;2023-01-10T12:38:43;7.50;99.90
36186;DHT22;22228;53.222;7.446;2023-01-10T12:41:25;7.40;99.90
36186;DHT22;22228;53.222;7.446;2023-01-10T12:44:13;7.40;99.90
36186;DHT22;22228;53.222;7.446;2023-01-10T12:46:39;7.40;99.90
36186;DHT22;22228;53.222;7.446;2023-01-10T12:49:10;7.40;99.90
36186;DHT22;22228;53.222;7.446;2023-01-10T12:51:34;7.40;99.90
36186;DHT22;22228;53.222;7.446;2023-01-10T12:53:57;7.40;99.90
36186;DHT22;22228;53.222;7.446;2023-01-10T12:56:19;7.50;99.90
36186;DHT22;22228;53.222;7.446;2023-01-10T12:58:42;7.50;99.90
36186;DHT22;22228;53.222;7.446;2023-01-10T13:01:05;7.40;99.90
36186;DHT22;22228;53.222;7.446;2023-01-10T13:03:28;7.40;99.90
36186;DHT22;22228;53.222;7.446;2023-01-10T13:05:49;7.50;99.90
36186;DHT22;22228;53.222;7.446;2023-01-10T13:08:13;7.50;99.90
36186;DHT22;22228;53.222;7.446;2023-01-10T13:10:38;7.50;99.90
36186;DHT22;22228;53.222;7.446;2023-01-10T13:13:05;7.50;99.90
36186;DHT22;22228;53.222;7.446;2023-01-10T13:15:31;7.50;99.90
36186;DHT22;22228;53.222;7.446;2023-01-10T13:17:56;7.40;99.90
36186;DHT22;22228;53.222;7.446;2023-01-10T13:20:38;7.40;99.90
36186;DHT22;22228;53.222;7.446;2023-01-10T13:23:00;7.40;99.90
36186;DHT22;22228;53.222;7.446;2023-01-10T13:25:35;7.40;99.90
36186;DHT22;22228;53.222;7.446;2023-01-10T13:28:02;7.40;99.90
36186;DHT22;22228;53.222;7.446;2023-01-10T13:30:26;7.40;99.90
36186;DHT22;22228;53.222;7.446;2023-01-10T13:32:57;7.30;99.90
36186;DHT22;22228;53.222;7.446;2023-01-10T13:35:19;7.30;99.90
36186;DHT22;22228;53.222;7.446;2023-01-10T13:37:42;7.30;99.90
36186;DHT22;22228;53.222;7.446;2023-01-10T13:40:05;7.30;99.90
36186;DHT22;22228;53.222;7.446;2023-01-10T13:42:30;7.30;99.90
36186;DHT22;22228;53.222;7.446;2023-01-10T13:45:30;7.30;99.90
36186;DHT22;22228;53.222;7.446;2023-01-10T13:47:59;7.30;99.90
36186;DHT22;22228;53.222;7.446;2023-01-10T13:50:47;7.20;99.90
36186;DHT22;22228;53.222;7.446;2023-01-10T13:53:55;7.20;99.90
36186;DHT22;22228;53.222;7.446;2023-01-10T13:56:32;7.10;99.90
36186;DHT22;22228;53.222;7.446;2023-01-10T13:58:53;7.10;99.90
36186;DHT22;22228;53.222;7.446;2023-01-10T14:01:35;7.00;99.90
36186;DHT22;22228;53.222;7.446;2023-01-10T14:04:21;7.00;99.90
36186;DHT22;22228;53.222;7.446;2023-01-10T14:06:42;7.00;99.90
36186;DHT22;22228;53.222;7.446;2023-01-10T14:09:05;7.00;99.90
36186;DHT22;22228;53.222;7.446;2023-01-10T14:11:51;6.90;99.90
36186;DHT22;22228;53.222;7.446;2023-01-10T14:14:19;6.90;99.90
36186;DHT22;22228;53.222;7.446;2023-01-10T14:16:42;6.90;99.90
36186;DHT22;22228;53.222;7.446;2023-01-10T14:19:18;6.90;99.90
36186;DHT22;22228;53.222;7.446;2023-01-10T14:21:42;6.80;99.90
36186;DHT22;22228;53.222;7.446;2023-01-10T14:24:03;6.80;99.90
36186;DHT22;22228;53.222;7.446;2023-01-10T14:26:29;6.80;99.90
36186;DHT22;22228;53.222;7.446;2023-01-10T14:28:51;6.70;99.90
36186;DHT22;22228;53.222;7.446;2023-01-10T14:31:17;6.70;99.90
36186;DHT22;22228;53.222;7.446;2023-01-10T14:33:41;6.70;99.90
36186;DHT22;22228;53.222;7.446;2023-01-10T14:36:16;6.70;99.90
36186;DHT22;22228;53.222;7.446;2023-01-10T14:38:37;6.70;99.90
36186;DHT22;22228;53.222;7.446;2023-01-10T14:41:00;6.70;99.90
36186;DHT22;22228;53.222;7.446;2023-01-10T14:43:39;6.70;99.90
36186;DHT22;22228;53.222;7.446;2023-01-10T14:46:04;6.60;99.90
36186;DHT22;22228;53.222;7.446;2023-01-10T14:48:30;6.60;99.90
36186;DHT22;22228;53.222;7.446;2023-01-10T14:50:50;6.60;99.90
36186;DHT22;22228;53.222;7.446;2023-01-10T14:53:24;6.60;99.90
36186;DHT22;22228;53.222;7.446;2023-01-10T14:55:45;6.60;99.90
36186;DHT22;22228;53.222;7.446;2023-01-10T14:58:05;6.60;99.90
36186;DHT22;22228;53.222;7.446;2023-01-10T15:00:29;6.60;99.90
36186;DHT22;22228;53.222;7.446;2023-01-10T15:02:50;6.50;99.90
36186;DHT22;22228;53.222;7.446;2023-01-10T15:05:16;6.50;99.90
36186;DHT22;22228;53.222;7.446;2023-01-10T15:07:37;6.60;99.90
36186;DHT22;22228;53.222;7.446;2023-01-10T15:09:59;6.50;99.90
36186;DHT22;22228;53.222;7.446;2023-01-10T15:12:21;6.60;99.90
36186;DHT22;22228;53.222;7.446;2023-01-10T15:14:43;6.60;99.90
36186;DHT22;22228;53.222;7.446;2023-01-10T15:17:03;6.50;99.90
36186;DHT22;22228;53.222;7.446;2023-01-10T15:19:33;6.50;99.90
36186;DHT22;22228;53.222;7.446;2023-01-10T15:22:01;6.60;99.90
36186;DHT22;22228;53.222;7.446;2023-01-10T15:24:31;6.60;99.90
36186;DHT22;22228;53.222;7.446;2023-01-10T15:26:52;6.50;99.90
36186;DHT22;22228;53.222;7.446;2023-01-10T15:29:17;6.60;99.90
36186;DHT22;22228;53.222;7.446;2023-01-10T15:31:40;6.60;99.90
36186;DHT22;22228;53.222;7.446;2023-01-10T15:34:07;6.60;99.90
36186;DHT22;22228;53.222;7.446;2023-01-10T15:36:29;6.50;99.90
36186;DHT22;22228;53.222;7.446;2023-01-10T15:38:50;6.50;99.90
36186;DHT22;22228;53.222;7.446;2023-01-10T15:41:17;6.50;99.90
36186;DHT22;22228;53.222;7.446;2023-01-10T15:43:38;6.50;99.90
36186;DHT22;22228;53.222;7.446;2023-01-10T15:46:00;6.50;99.90
36186;DHT22;22228;53.222;7.446;2023-01-10T15:48:29;6.50;99.90
36186;DHT22;22228;53.222;7.446;2023-01-10T15:50:53;6.50;99.90
36186;DHT22;22228;53.222;7.446;2023-01-10T15:53:16;6.50;99.90
36186;DHT22;22228;53.222;7.446;2023-01-10T15:55:42;6.50;99.90
36186;DHT22;22228;53.222;7.446;2023-01-10T15:58:12;6.50;99.90
36186;DHT22;22228;53.222;7.446;2023-01-10T16:00:34;6.50;99.90
36186;DHT22;22228;53.222;7.446;2023-01-10T16:02:55;6.50;99.90
36186;DHT22;22228;53.222;7.446;2023-01-10T16:05:16;6.50;99.90
36186;DHT22;22228;53.222;7.446;2023-01-10T16:07:42;6.50;99.90
36186;DHT22;22228;53.222;7.446;2023-01-10T16:10:06;6.50;99.90
36186;DHT22;22228;53.222;7.446;2023-01-10T16:12:33;6.50;99.90
36186;DHT22;22228;53.222;7.446;2023-01-10T16:15:17;6.50;99.90
36186;DHT22;22228;53.222;7.446;2023-01-10T16:17:41;6.60;99.90
36186;DHT22;22228;53.222;7.446;2023-01-10T16:20:01;6.60;99.90
36186;DHT22;22228;53.222;7.446;2023-01-10T16:22:22;6.60;99.90
36186;DHT22;22228;53.222;7.446;2023-01-10T16:24:42;6.60;99.90
36186;DHT22;22228;53.222;7.446;2023-01-10T16:27:04;6.70;99.90
36186;DHT22;22228;53.222;7.446;2023-01-10T16:29:25;6.60;99.90
36186;DHT22;22228;53.222;7.446;2023-01-10T16:31:45;6.60;99.90
36186;DHT22;22228;53.222;7.446;2023-01-10T16:34:06;6.60;99.90
36186;DHT22;22228;53.222;7.446;2023-01-10T16:36:26;6.60;99.90
36186;DHT22;22228;53.222;7.446;2023-01-10T16:38:48;6.60;99.90
36186;DHT22;22228;53.222;7.446;2023-01-10T16:41:09;6.50;99.90
36186;DHT22;22228;53.222;7.446;2023-01-10T16:43:49;6.40;99.90
36186;DHT22;22228;53.222;7.446;2023-01-10T16:46:11;6.40;99.90
36186;DHT22;22228;53.222;7.446;2023-01-10T16:48:31;6.30;99.90
36186;DHT22;22228;53.222;7.446;2023-01-10T16:50:52;6.30;99.90
36186;DHT22;22228;53.222;7.446;2023-01-10T16:53:14;6.20;99.90
36186;DHT22;22228;53.222;7.446;2023-01-10T16:55:38;6.20;99.90
36186;DHT22;22228;53.222;7.446;2023-01-10T16:57:59;6.10;99.90
36186;DHT22;22228;53.222;7.446;2023-01-10T17:00:21;6.10;99.90
36186;DHT22;22228;53.222;7.446;2023-01-10T17:02:42;6.10;99.90
36186;DHT22;22228;53.222;7.446;2023-01-10T17:05:03;6.10;99.90
36186;DHT22;22228;53.222;7.446;2023-01-10T17:07:23;6.10;99.90
36186;DHT22;22228;53.222;7.446;2023-01-10T17:09:44;6.10;99.90
36186;DHT22;22228;53.222;7.446;2023-01-10T17:12:06;6.10;99.90
36186;DHT22;22228;53.222;7.446;2023-01-10T17:14:30;6.10;99.90
36186;DHT22;22228;53.222;7.446;2023-01-10T17:16:53;6.00;99.90
36186;DHT22;22228;53.222;7.446;2023-01-10T17:19:13;6.00;99.90
36186;DHT22;22228;53.222;7.446;2023-01-10T17:21:34;6.00;99.90
36186;DHT22;22228;53.222;7.446;2023-01-10T17:23:54;6.00;99.90
36186;DHT22;22228;53.222;7.446;2023-01-10T17:26:16;6.00;99.90
36186;DHT22;22228;53.222;7.446;2023-01-10T17:28:37;6.00;99.90
36186;DHT22;22228;53.222;7.446;2023-01-10T17:30:58;5.90;99.90
36186;DHT22;22228;53.222;7.446;2023-01-10T17:33:21;5.90;99.90
36186;DHT22;22228;53.222;7.446;2023-01-10T17:35:42;5.90;99.90
36186;DHT22;22228;53.222;7.446;2023-01-10T17:38:03;5.90;99.90
36186;DHT22;22228;53.222;7.446;2023-01-10T17:40:23;5.90;99.90
36186;DHT22;22228;53.222;7.446;2023-01-10T17:42:44;5.90;99.90
36186;DHT22;22228;53.222;7.446;2023-01-10T17:45:05;5.90;99.90
36186;DHT22;22228;53.222;7.446;2023-01-10T17:47:25;5.90;99.90
36186;DHT22;22228;53.222;7.446;2023-01-10T17:49:47;5.90;99.90
36186;DHT22;22228;53.222;7.446;2023-01-10T17:52:08;5.90;99.90
36186;DHT22;22228;53.222;7.446;2023-01-10T17:54:28;5.90;99.90
36186;DHT22;22228;53.222;7.446;2023-01-10T17:56:49;5.80;99.90
36186;DHT22;22228;53.222;7.446;2023-01-10T17:59:09;5.90;99.90
36186;DHT22;22228;53.222;7.446;2023-01-10T18:01:30;5.80;99.90
36186;DHT22;22228;53.222;7.446;2023-01-10T18:03:51;5.90;99.90
36186;DHT22;22228;53.222;7.446;2023-01-10T18:06:13;5.80;99.90
36186;DHT22;22228;53.222;7.446;2023-01-10T18:08:33;5.80;99.90
36186;DHT22;22228;53.222;7.446;2023-01-10T18:10:57;5.80;99.90